sensor_id;sensor_type;location;lat;lon;timestamp;temperature;humidity
14877;DHT22;69691;48.172;17.070;2023-10-08T00:00:04;20.10;46.40
14877;DHT22;69691;48.172;17.070;2023-10-08T00:02:50;20.10;46.50
14877;DHT22;69691;48.172;17.070;2023-10-08T00:05:17;20.10;46.60
14877;DHT22;69691;48.172;17.070;2023-10-08T00:07:44;20.00;46.60
14877;DHT22;69691;48.172;17.070;2023-10-08T00:10:09;20.00;46.70
14877;DHT22;69691;48.172;17.070;2023-10-08T00:12:35;19.90;46.90
14877;DHT22;69691;48.172;17.070;2023-10-08T00:15:01;19.70;47.80
14877;DHT22;69691;48.172;17.070;2023-10-08T00:17:32;19.60;47.50
14877;DHT22;69691;48.172;17.070;2023-10-08T00:19:58;19.50;48.10
14877;DHT22;69691;48.172;17.070;2023-10-08T00:22:26;19.50;48.40
14877;DHT22;69691;48.172;17.070;2023-10-08T00:24:54;19.40;48.50
14877;DHT22;69691;48.172;17.070;2023-10-08T00:27:23;19.40;48.70
14877;DHT22;69691;48.172;17.070;2023-10-08T00:29:49;19.40;48.70
14877;DHT22;69691;48.172;17.070;2023-10-08T00:32:16;19.40;48.90
14877;DHT22;69691;48.172;17.070;2023-10-08T00:34:43;19.40;49.00
14877;DHT22;69691;48.172;17.070;2023-10-08T00:37:10;19.30;49.00
14877;DHT22;69691;48.172;17.070;2023-10-08T00:39:37;19.30;49.20
14877;DHT22;69691;48.172;17.070;2023-10-08T00:42:04;19.30;49.20
14877;DHT22;69691;48.172;17.070;2023-10-08T00:44:33;19.20;49.30
14877;DHT22;69691;48.172;17.070;2023-10-08T00:47:05;19.20;49.70
14877;DHT22;69691;48.172;17.070;2023-10-08T00:49:32;19.10;50.00
14877;DHT22;69691;48.172;17.070;2023-10-08T00:52:12;19.00;50.40
14877;DHT22;69691;48.172;17.070;2023-10-08T00:54:41;18.90;50.90
14877;DHT22;69691;48.172;17.070;2023-10-08T00:57:19;18.70;51.20
14877;DHT22;69691;48.172;17.070;2023-10-08T00:59:48;18.60;51.70
14877;DHT22;69691;48.172;17.070;2023-10-08T01:02:22;18.60;52.70
14877;DHT22;69691;48.172;17.070;2023-10-08T01:04:52;18.50;52.40
14877;DHT22;69691;48.172;17.070;2023-10-08T01:07:21;18.40;52.60
14877;DHT22;69691;48.172;17.070;2023-10-08T01:09:47;18.40;52.90
14877;DHT22;69691;48.172;17.070;2023-10-08T01:12:19;18.30;52.90
14877;DHT22;69691;48.172;17.070;2023-10-08T01:14:52;18.30;53.10
14877;DHT22;69691;48.172;17.070;2023-10-08T01:17:23;18.30;53.40
14877;DHT22;69691;48.172;17.070;2023-10-08T01:19:57;18.20;53.50
14877;DHT22;69691;48.172;17.070;2023-10-08T01:22:45;18.10;53.70
14877;DHT22;69691;48.172;17.070;2023-10-08T01:25:11;18.10;53.90
14877;DHT22;69691;48.172;17.070;2023-10-08T01:27:45;18.10;54.10
14877;DHT22;69691;48.172;17.070;2023-10-08T01:30:12;18.20;54.30
14877;DHT22;69691;48.172;17.070;2023-10-08T01:32:44;18.10;54.30
14877;DHT22;69691;48.172;17.070;2023-10-08T01:35:10;18.20;54.80
14877;DHT22;69691;48.172;17.070;2023-10-08T01:37:52;18.20;55.00
14877;DHT22;69691;48.172;17.070;2023-10-08T01:40:20;18.20;55.20
14877;DHT22;69691;48.172;17.070;2023-10-08T01:42:46;18.20;55.40
14877;DHT22;69691;48.172;17.070;2023-10-08T01:45:17;18.20;55.40
14877;DHT22;69691;48.172;17.070;2023-10-08T01:47:47;18.20;55.40
14877;DHT22;69691;48.172;17.070;2023-10-08T01:50:16;18.20;55.50
14877;DHT22;69691;48.172;17.070;2023-10-08T01:52:51;18.20;55.50
14877;DHT22;69691;48.172;17.070;2023-10-08T01:55:17;18.20;55.80
14877;DHT22;69691;48.172;17.070;2023-10-08T01:57:46;18.20;56.50
14877;DHT22;69691;48.172;17.070;2023-10-08T02:00:12;18.20;56.00
14877;DHT22;69691;48.172;17.070;2023-10-08T02:02:47;18.20;56.40
14877;DHT22;69691;48.172;17.070;2023-10-08T02:05:13;18.20;56.50
14877;DHT22;69691;48.172;17.070;2023-10-08T02:07:41;18.20;56.60
14877;DHT22;69691;48.172;17.070;2023-10-08T02:10:10;18.20;56.80
14877;DHT22;69691;48.172;17.070;2023-10-08T02:12:38;18.20;56.90
14877;DHT22;69691;48.172;17.070;2023-10-08T02:15:05;18.20;57.00
14877;DHT22;69691;48.172;17.070;2023-10-08T02:17:33;18.20;57.00
14877;DHT22;69691;48.172;17.070;2023-10-08T02:19:59;18.20;57.20
14877;DHT22;69691;48.172;17.070;2023-10-08T02:22:25;18.20;57.20
14877;DHT22;69691;48.172;17.070;2023-10-08T02:24:50;18.30;57.00
14877;DHT22;69691;48.172;17.070;2023-10-08T02:27:19;18.30;56.60
14877;DHT22;69691;48.172;17.070;2023-10-08T02:29:44;18.30;56.50
14877;DHT22;69691;48.172;17.070;2023-10-08T02:32:10;18.40;56.50
14877;DHT22;69691;48.172;17.070;2023-10-08T02:34:36;18.40;55.90
14877;DHT22;69691;48.172;17.070;2023-10-08T02:37:02;18.40;56.00
14877;DHT22;69691;48.172;17.070;2023-10-08T02:39:31;18.40;55.40
14877;DHT22;69691;48.172;17.070;2023-10-08T02:41:57;18.50;55.40
14877;DHT22;69691;48.172;17.070;2023-10-08T02:44:25;18.50;55.00
14877;DHT22;69691;48.172;17.070;2023-10-08T02:46:53;18.60;54.50
14877;DHT22;69691;48.172;17.070;2023-10-08T02:49:21;18.60;54.10
14877;DHT22;69691;48.172;17.070;2023-10-08T02:51:51;18.70;54.00
14877;DHT22;69691;48.172;17.070;2023-10-08T02:54:19;18.70;53.70
14877;DHT22;69691;48.172;17.070;2023-10-08T02:56:56;18.70;53.40
14877;DHT22;69691;48.172;17.070;2023-10-08T02:59:28;18.60;53.40
14877;DHT22;69691;48.172;17.070;2023-10-08T03:02:05;18.60;53.50
14877;DHT22;69691;48.172;17.070;2023-10-08T03:04:41;18.50;53.50
14877;DHT22;69691;48.172;17.070;2023-10-08T03:07:17;18.50;53.50
14877;DHT22;69691;48.172;17.070;2023-10-08T03:09:59;18.60;53.40
14877;DHT22;69691;48.172;17.070;2023-10-08T03:12:33;18.60;53.30
14877;DHT22;69691;48.172;17.070;2023-10-08T03:14:59;18.70;53.20
14877;DHT22;69691;48.172;17.070;2023-10-08T03:17:48;18.70;53.00
14877;DHT22;69691;48.172;17.070;2023-10-08T03:20:15;18.80;52.90
14877;DHT22;69691;48.172;17.070;2023-10-08T03:22:56;18.90;52.90
14877;DHT22;69691;48.172;17.070;2023-10-08T03:25:25;18.90;52.80
14877;DHT22;69691;48.172;17.070;2023-10-08T03:27:52;18.90;52.90
14877;DHT22;69691;48.172;17.070;2023-10-08T03:30:20;18.90;52.70
14877;DHT22;69691;48.172;17.070;2023-10-08T03:32:47;18.90;52.60
14877;DHT22;69691;48.172;17.070;2023-10-08T03:35:21;18.90;52.70
14877;DHT22;69691;48.172;17.070;2023-10-08T03:37:56;18.90;52.60
14877;DHT22;69691;48.172;17.070;2023-10-08T03:40:42;18.90;52.60
14877;DHT22;69691;48.172;17.070;2023-10-08T03:43:09;18.90;52.60
14877;DHT22;69691;48.172;17.070;2023-10-08T03:45:48;18.90;52.60
14877;DHT22;69691;48.172;17.070;2023-10-08T03:48:20;18.80;52.60
14877;DHT22;69691;48.172;17.070;2023-10-08T03:50:48;18.80;52.60
14877;DHT22;69691;48.172;17.070;2023-10-08T03:53:22;18.80;52.60
14877;DHT22;69691;48.172;17.070;2023-10-08T03:55:48;18.90;52.60
14877;DHT22;69691;48.172;17.070;2023-10-08T03:58:17;18.90;52.60
14877;DHT22;69691;48.172;17.070;2023-10-08T04:00:55;18.90;52.50
14877;DHT22;69691;48.172;17.070;2023-10-08T04:03:37;19.00;52.90
14877;DHT22;69691;48.172;17.070;2023-10-08T04:06:29;19.00;52.10
14877;DHT22;69691;48.172;17.070;2023-10-08T04:09:00;19.00;52.10
14877;DHT22;69691;48.172;17.070;2023-10-08T04:11:39;19.00;52.10
14877;DHT22;69691;48.172;17.070;2023-10-08T04:14:24;19.10;52.10
14877;DHT22;69691;48.172;17.070;2023-10-08T04:16:51;19.10;52.20
14877;DHT22;69691;48.172;17.070;2023-10-08T04:19:21;19.00;52.10
14877;DHT22;69691;48.172;17.070;2023-10-08T04:21:55;19.00;52.10
14877;DHT22;69691;48.172;17.070;2023-10-08T04:24:24;19.10;52.10
14877;DHT22;69691;48.172;17.070;2023-10-08T04:26:55;19.10;52.00
14877;DHT22;69691;48.172;17.070;2023-10-08T04:29:23;19.10;52.00
14877;DHT22;69691;48.172;17.070;2023-10-08T04:31:49;19.10;51.90
14877;DHT22;69691;48.172;17.070;2023-10-08T04:34:30;19.00;51.90
14877;DHT22;69691;48.172;17.070;2023-10-08T04:36:58;19.10;52.10
14877;DHT22;69691;48.172;17.070;2023-10-08T04:39:27;19.00;52.20
14877;DHT22;69691;48.172;17.070;2023-10-08T04:41:59;19.00;52.40
14877;DHT22;69691;48.172;17.070;2023-10-08T04:44:35;19.10;52.40
14877;DHT22;69691;48.172;17.070;2023-10-08T04:47:04;19.10;52.40
14877;DHT22;69691;48.172;17.070;2023-10-08T04:49:31;19.10;52.40
14877;DHT22;69691;48.172;17.070;2023-10-08T04:52:06;19.10;52.50
14877;DHT22;69691;48.172;17.070;2023-10-08T04:54:42;19.10;52.60
14877;DHT22;69691;48.172;17.070;2023-10-08T04:57:17;19.10;52.70
14877;DHT22;69691;48.172;17.070;2023-10-08T04:59:44;19.20;52.80
14877;DHT22;69691;48.172;17.070;2023-10-08T05:02:12;19.30;52.80
14877;DHT22;69691;48.172;17.070;2023-10-08T05:04:39;19.40;52.80
14877;DHT22;69691;48.172;17.070;2023-10-08T05:07:25;19.40;52.80
14877;DHT22;69691;48.172;17.070;2023-10-08T05:10:10;19.50;52.80
14877;DHT22;69691;48.172;17.070;2023-10-08T05:12:37;19.60;52.80
14877;DHT22;69691;48.172;17.070;2023-10-08T05:15:04;19.70;52.80
14877;DHT22;69691;48.172;17.070;2023-10-08T05:17:46;19.70;52.80
14877;DHT22;69691;48.172;17.070;2023-10-08T05:20:20;19.70;52.70
14877;DHT22;69691;48.172;17.070;2023-10-08T05:23:12;19.80;52.80
14877;DHT22;69691;48.172;17.070;2023-10-08T05:25:56;19.80;52.70
14877;DHT22;69691;48.172;17.070;2023-10-08T05:28:36;19.90;52.70
14877;DHT22;69691;48.172;17.070;2023-10-08T05:31:14;19.90;52.50
14877;DHT22;69691;48.172;17.070;2023-10-08T05:33:44;19.90;52.40
14877;DHT22;69691;48.172;17.070;2023-10-08T05:36:41;19.90;52.30
14877;DHT22;69691;48.172;17.070;2023-10-08T05:39:36;19.90;52.50
14877;DHT22;69691;48.172;17.070;2023-10-08T05:42:08;19.80;52.80
14877;DHT22;69691;48.172;17.070;2023-10-08T05:44:53;19.80;52.90
14877;DHT22;69691;48.172;17.070;2023-10-08T05:47:34;19.70;53.10
14877;DHT22;69691;48.172;17.070;2023-10-08T05:50:01;19.70;53.20
14877;DHT22;69691;48.172;17.070;2023-10-08T05:52:44;19.80;53.40
14877;DHT22;69691;48.172;17.070;2023-10-08T05:55:19;19.80;53.30
14877;DHT22;69691;48.172;17.070;2023-10-08T05:58:06;19.80;53.50
14877;DHT22;69691;48.172;17.070;2023-10-08T06:00:46;19.90;53.80
14877;DHT22;69691;48.172;17.070;2023-10-08T06:03:15;19.90;53.90
14877;DHT22;69691;48.172;17.070;2023-10-08T06:06:07;20.00;54.10
14877;DHT22;69691;48.172;17.070;2023-10-08T06:08:42;20.00;54.20
14877;DHT22;69691;48.172;17.070;2023-10-08T06:11:21;20.10;54.30
14877;DHT22;69691;48.172;17.070;2023-10-08T06:14:05;20.20;54.20
14877;DHT22;69691;48.172;17.070;2023-10-08T06:16:54;20.30;54.10
14877;DHT22;69691;48.172;17.070;2023-10-08T06:19:41;20.50;54.60
14877;DHT22;69691;48.172;17.070;2023-10-08T06:22:08;20.60;53.90
14877;DHT22;69691;48.172;17.070;2023-10-08T06:24:34;20.70;53.80
14877;DHT22;69691;48.172;17.070;2023-10-08T06:27:04;20.80;53.80
14877;DHT22;69691;48.172;17.070;2023-10-08T06:29:31;21.00;53.90
14877;DHT22;69691;48.172;17.070;2023-10-08T06:31:58;21.00;53.90
14877;DHT22;69691;48.172;17.070;2023-10-08T06:34:28;21.10;53.90
14877;DHT22;69691;48.172;17.070;2023-10-08T06:36:56;21.10;54.00
14877;DHT22;69691;48.172;17.070;2023-10-08T06:39:24;21.20;54.20
14877;DHT22;69691;48.172;17.070;2023-10-08T06:41:54;21.20;54.30
14877;DHT22;69691;48.172;17.070;2023-10-08T06:44:27;21.20;54.30
14877;DHT22;69691;48.172;17.070;2023-10-08T06:46:53;21.20;54.40
14877;DHT22;69691;48.172;17.070;2023-10-08T06:49:21;21.30;54.50
14877;DHT22;69691;48.172;17.070;2023-10-08T06:51:50;21.30;54.50
14877;DHT22;69691;48.172;17.070;2023-10-08T06:54:17;21.40;54.50
14877;DHT22;69691;48.172;17.070;2023-10-08T06:56:44;21.40;54.70
14877;DHT22;69691;48.172;17.070;2023-10-08T06:59:17;21.40;54.80
14877;DHT22;69691;48.172;17.070;2023-10-08T07:01:44;21.40;54.90
14877;DHT22;69691;48.172;17.070;2023-10-08T07:04:17;21.40;54.90
14877;DHT22;69691;48.172;17.070;2023-10-08T07:06:44;21.50;54.80
14877;DHT22;69691;48.172;17.070;2023-10-08T07:09:13;21.70;54.70
14877;DHT22;69691;48.172;17.070;2023-10-08T07:11:50;21.80;54.80
14877;DHT22;69691;48.172;17.070;2023-10-08T07:14:29;22.00;54.00
14877;DHT22;69691;48.172;17.070;2023-10-08T07:16:59;22.10;53.70
14877;DHT22;69691;48.172;17.070;2023-10-08T07:19:30;22.30;53.40
14877;DHT22;69691;48.172;17.070;2023-10-08T07:22:03;22.60;52.70
14877;DHT22;69691;48.172;17.070;2023-10-08T07:24:43;22.80;52.10
14877;DHT22;69691;48.172;17.070;2023-10-08T07:27:17;23.10;51.70
14877;DHT22;69691;48.172;17.070;2023-10-08T07:29:48;23.30;51.20
14877;DHT22;69691;48.172;17.070;2023-10-08T07:32:14;23.40;51.00
14877;DHT22;69691;48.172;17.070;2023-10-08T07:34:44;23.50;50.70
14877;DHT22;69691;48.172;17.070;2023-10-08T07:37:10;23.60;50.40
14877;DHT22;69691;48.172;17.070;2023-10-08T07:39:37;23.60;50.20
14877;DHT22;69691;48.172;17.070;2023-10-08T07:42:12;23.70;50.20
14877;DHT22;69691;48.172;17.070;2023-10-08T07:44:38;23.90;50.00
14877;DHT22;69691;48.172;17.070;2023-10-08T07:47:05;24.00;49.70
14877;DHT22;69691;48.172;17.070;2023-10-08T07:49:39;24.00;49.40
14877;DHT22;69691;48.172;17.070;2023-10-08T07:52:10;23.80;49.20
14877;DHT22;69691;48.172;17.070;2023-10-08T07:54:41;23.80;49.40
14877;DHT22;69691;48.172;17.070;2023-10-08T07:57:06;23.90;49.60
14877;DHT22;69691;48.172;17.070;2023-10-08T07:59:40;24.10;49.30
14877;DHT22;69691;48.172;17.070;2023-10-08T08:02:13;24.20;49.10
14877;DHT22;69691;48.172;17.070;2023-10-08T08:04:43;24.20;49.20
14877;DHT22;69691;48.172;17.070;2023-10-08T08:07:11;24.20;49.20
14877;DHT22;69691;48.172;17.070;2023-10-08T08:09:45;24.00;49.50
14877;DHT22;69691;48.172;17.070;2023-10-08T08:12:35;23.70;50.10
14877;DHT22;69691;48.172;17.070;2023-10-08T08:15:03;23.60;50.90
14877;DHT22;69691;48.172;17.070;2023-10-08T08:17:44;23.50;51.70
14877;DHT22;69691;48.172;17.070;2023-10-08T08:20:13;23.30;52.30
14877;DHT22;69691;48.172;17.070;2023-10-08T08:22:47;23.20;52.70
14877;DHT22;69691;48.172;17.070;2023-10-08T08:25:20;23.10;53.10
14877;DHT22;69691;48.172;17.070;2023-10-08T08:28:08;23.00;53.60
14877;DHT22;69691;48.172;17.070;2023-10-08T08:30:43;22.70;54.50
14877;DHT22;69691;48.172;17.070;2023-10-08T08:33:13;22.60;56.00
14877;DHT22;69691;48.172;17.070;2023-10-08T08:35:56;22.50;56.00
14877;DHT22;69691;48.172;17.070;2023-10-08T08:38:23;22.50;56.30
14877;DHT22;69691;48.172;17.070;2023-10-08T08:40:49;22.60;56.20
14877;DHT22;69691;48.172;17.070;2023-10-08T08:43:16;22.50;56.20
14877;DHT22;69691;48.172;17.070;2023-10-08T08:45:43;22.50;56.00
14877;DHT22;69691;48.172;17.070;2023-10-08T08:48:09;22.10;56.00
14877;DHT22;69691;48.172;17.070;2023-10-08T08:50:37;21.90;57.50
14877;DHT22;69691;48.172;17.070;2023-10-08T08:53:04;21.80;57.10
14877;DHT22;69691;48.172;17.070;2023-10-08T08:55:31;21.70;57.40
14877;DHT22;69691;48.172;17.070;2023-10-08T08:57:59;21.70;57.30
14877;DHT22;69691;48.172;17.070;2023-10-08T09:00:27;21.80;57.10
14877;DHT22;69691;48.172;17.070;2023-10-08T09:02:55;21.90;56.80
14877;DHT22;69691;48.172;17.070;2023-10-08T09:05:21;21.90;56.50
14877;DHT22;69691;48.172;17.070;2023-10-08T09:08:02;21.80;56.40
14877;DHT22;69691;48.172;17.070;2023-10-08T09:10:32;21.70;56.30
14877;DHT22;69691;48.172;17.070;2023-10-08T09:13:04;21.40;56.40
14877;DHT22;69691;48.172;17.070;2023-10-08T09:15:33;21.00;57.00
14877;DHT22;69691;48.172;17.070;2023-10-08T09:17:59;20.70;57.50
14877;DHT22;69691;48.172;17.070;2023-10-08T09:20:36;20.30;58.20
14877;DHT22;69691;48.172;17.070;2023-10-08T09:23:12;20.20;58.60
14877;DHT22;69691;48.172;17.070;2023-10-08T09:28:06;19.80;59.30
14877;DHT22;69691;48.172;17.070;2023-10-08T09:30:39;19.70;59.30
14877;DHT22;69691;48.172;17.070;2023-10-08T09:33:10;19.60;59.20
14877;DHT22;69691;48.172;17.070;2023-10-08T09:35:38;19.50;59.40
14877;DHT22;69691;48.172;17.070;2023-10-08T09:38:08;19.30;59.60
14877;DHT22;69691;48.172;17.070;2023-10-08T09:40:41;19.30;60.00
14877;DHT22;69691;48.172;17.070;2023-10-08T09:43:12;19.20;60.00
14877;DHT22;69691;48.172;17.070;2023-10-08T09:45:46;19.00;60.20
14877;DHT22;69691;48.172;17.070;2023-10-08T09:48:16;18.80;60.90
14877;DHT22;69691;48.172;17.070;2023-10-08T09:50:47;18.70;62.10
14877;DHT22;69691;48.172;17.070;2023-10-08T09:53:13;18.50;61.50
14877;DHT22;69691;48.172;17.070;2023-10-08T09:56:07;18.40;61.80
14877;DHT22;69691;48.172;17.070;2023-10-08T09:58:40;18.30;61.80
14877;DHT22;69691;48.172;17.070;2023-10-08T10:01:08;18.20;61.40
14877;DHT22;69691;48.172;17.070;2023-10-08T10:03:35;18.10;61.60
14877;DHT22;69691;48.172;17.070;2023-10-08T10:06:02;18.10;61.70
14877;DHT22;69691;48.172;17.070;2023-10-08T10:08:28;18.10;60.80
14877;DHT22;69691;48.172;17.070;2023-10-08T10:11:01;18.00;60.00
14877;DHT22;69691;48.172;17.070;2023-10-08T10:13:38;17.80;59.90
14877;DHT22;69691;48.172;17.070;2023-10-08T10:16:22;17.80;60.60
14877;DHT22;69691;48.172;17.070;2023-10-08T10:18:55;17.90;59.90
14877;DHT22;69691;48.172;17.070;2023-10-08T10:21:30;18.00;59.20
14877;DHT22;69691;48.172;17.070;2023-10-08T10:23:57;18.10;58.90
14877;DHT22;69691;48.172;17.070;2023-10-08T10:26:30;18.20;58.30
14877;DHT22;69691;48.172;17.070;2023-10-08T10:31:44;18.20;57.50
14877;DHT22;69691;48.172;17.070;2023-10-08T10:34:25;18.00;57.40
14877;DHT22;69691;48.172;17.070;2023-10-08T10:36:54;17.80;57.80
14877;DHT22;69691;48.172;17.070;2023-10-08T10:39:24;17.80;57.70
14877;DHT22;69691;48.172;17.070;2023-10-08T10:41:56;17.80;57.60
14877;DHT22;69691;48.172;17.070;2023-10-08T10:44:24;17.80;57.50
14877;DHT22;69691;48.172;17.070;2023-10-08T10:46:50;17.70;57.50
14877;DHT22;69691;48.172;17.070;2023-10-08T10:49:20;17.50;57.70
14877;DHT22;69691;48.172;17.070;2023-10-08T10:51:57;17.30;58.30
14877;DHT22;69691;48.172;17.070;2023-10-08T10:54:26;17.20;58.70
14877;DHT22;69691;48.172;17.070;2023-10-08T10:57:01;17.10;58.80
14877;DHT22;69691;48.172;17.070;2023-10-08T10:59:33;17.00;59.20
14877;DHT22;69691;48.172;17.070;2023-10-08T11:02:06;16.90;59.50
14877;DHT22;69691;48.172;17.070;2023-10-08T11:04:47;16.90;59.80
14877;DHT22;69691;48.172;17.070;2023-10-08T11:07:21;16.90;59.90
14877;DHT22;69691;48.172;17.070;2023-10-08T11:09:47;16.90;59.90
14877;DHT22;69691;48.172;17.070;2023-10-08T11:12:14;16.90;60.00
14877;DHT22;69691;48.172;17.070;2023-10-08T11:14:47;16.80;60.00
14877;DHT22;69691;48.172;17.070;2023-10-08T11:17:18;16.80;60.40
14877;DHT22;69691;48.172;17.070;2023-10-08T11:19:50;16.80;60.50
14877;DHT22;69691;48.172;17.070;2023-10-08T11:22:17;16.70;60.60
14877;DHT22;69691;48.172;17.070;2023-10-08T11:24:45;16.70;61.10
14877;DHT22;69691;48.172;17.070;2023-10-08T11:27:17;16.60;61.90
14877;DHT22;69691;48.172;17.070;2023-10-08T11:29:55;16.70;62.20
14877;DHT22;69691;48.172;17.070;2023-10-08T11:32:26;16.60;62.20
14877;DHT22;69691;48.172;17.070;2023-10-08T11:34:57;16.60;62.50
14877;DHT22;69691;48.172;17.070;2023-10-08T11:37:45;16.70;62.60
14877;DHT22;69691;48.172;17.070;2023-10-08T11:40:24;16.70;62.70
14877;DHT22;69691;48.172;17.070;2023-10-08T11:43:15;16.90;62.30
14877;DHT22;69691;48.172;17.070;2023-10-08T11:45:43;17.00;62.90
14877;DHT22;69691;48.172;17.070;2023-10-08T11:48:16;17.20;61.60
14877;DHT22;69691;48.172;17.070;2023-10-08T11:50:54;17.30;61.40
14877;DHT22;69691;48.172;17.070;2023-10-08T11:53:23;17.30;60.90
14877;DHT22;69691;48.172;17.070;2023-10-08T11:55:50;17.30;61.10
14877;DHT22;69691;48.172;17.070;2023-10-08T11:58:22;17.40;61.90
14877;DHT22;69691;48.172;17.070;2023-10-08T12:01:01;17.40;60.50
14877;DHT22;69691;48.172;17.070;2023-10-08T12:03:29;17.40;60.50
14877;DHT22;69691;48.172;17.070;2023-10-08T12:05:55;17.40;60.50
14877;DHT22;69691;48.172;17.070;2023-10-08T12:08:25;17.50;60.50
14877;DHT22;69691;48.172;17.070;2023-10-08T12:10:54;17.50;60.40
14877;DHT22;69691;48.172;17.070;2023-10-08T12:13:20;17.40;60.80
14877;DHT22;69691;48.172;17.070;2023-10-08T12:15:54;17.30;60.80
14877;DHT22;69691;48.172;17.070;2023-10-08T12:18:43;17.30;61.10
14877;DHT22;69691;48.172;17.070;2023-10-08T12:21:09;17.30;60.80
14877;DHT22;69691;48.172;17.070;2023-10-08T12:23:41;17.30;60.60
14877;DHT22;69691;48.172;17.070;2023-10-08T12:26:09;17.20;60.60
14877;DHT22;69691;48.172;17.070;2023-10-08T12:28:36;17.30;60.50
14877;DHT22;69691;48.172;17.070;2023-10-08T12:31:02;17.20;60.30
14877;DHT22;69691;48.172;17.070;2023-10-08T12:33:30;17.20;60.10
14877;DHT22;69691;48.172;17.070;2023-10-08T12:35:57;17.20;60.50
14877;DHT22;69691;48.172;17.070;2023-10-08T12:38:24;17.30;59.60
14877;DHT22;69691;48.172;17.070;2023-10-08T12:40:54;17.30;59.10
14877;DHT22;69691;48.172;17.070;2023-10-08T12:43:21;17.30;58.70
14877;DHT22;69691;48.172;17.070;2023-10-08T12:45:49;17.30;58.60
14877;DHT22;69691;48.172;17.070;2023-10-08T12:48:25;17.30;58.60
14877;DHT22;69691;48.172;17.070;2023-10-08T12:50:52;17.30;58.30
14877;DHT22;69691;48.172;17.070;2023-10-08T12:53:27;17.20;58.30
14877;DHT22;69691;48.172;17.070;2023-10-08T12:56:06;17.30;58.30
14877;DHT22;69691;48.172;17.070;2023-10-08T12:58:40;17.30;58.30
14877;DHT22;69691;48.172;17.070;2023-10-08T13:01:10;17.20;58.10
14877;DHT22;69691;48.172;17.070;2023-10-08T13:03:37;17.00;58.50
14877;DHT22;69691;48.172;17.070;2023-10-08T13:06:20;16.90;58.60
14877;DHT22;69691;48.172;17.070;2023-10-08T13:08:54;16.80;58.80
14877;DHT22;69691;48.172;17.070;2023-10-08T13:11:25;16.80;59.70
14877;DHT22;69691;48.172;17.070;2023-10-08T13:13:53;16.70;59.30
14877;DHT22;69691;48.172;17.070;2023-10-08T13:16:23;16.60;59.60
14877;DHT22;69691;48.172;17.070;2023-10-08T13:18:57;16.60;60.10
14877;DHT22;69691;48.172;17.070;2023-10-08T13:21:25;16.60;60.40
14877;DHT22;69691;48.172;17.070;2023-10-08T13:23:51;16.60;61.70
14877;DHT22;69691;48.172;17.070;2023-10-08T13:26:18;16.60;62.40
14877;DHT22;69691;48.172;17.070;2023-10-08T13:28:44;16.60;62.20
14877;DHT22;69691;48.172;17.070;2023-10-08T13:31:10;16.40;62.20
14877;DHT22;69691;48.172;17.070;2023-10-08T13:33:38;16.60;62.70
14877;DHT22;69691;48.172;17.070;2023-10-08T13:36:06;16.80;62.00
14877;DHT22;69691;48.172;17.070;2023-10-08T13:38:36;16.90;61.30
14877;DHT22;69691;48.172;17.070;2023-10-08T13:41:04;16.90;60.90
14877;DHT22;69691;48.172;17.070;2023-10-08T13:43:33;17.00;60.90
14877;DHT22;69691;48.172;17.070;2023-10-08T13:46:03;17.10;60.40
14877;DHT22;69691;48.172;17.070;2023-10-08T13:48:34;17.00;60.10
14877;DHT22;69691;48.172;17.070;2023-10-08T13:51:05;16.90;60.30
14877;DHT22;69691;48.172;17.070;2023-10-08T13:53:40;16.90;60.50
14877;DHT22;69691;48.172;17.070;2023-10-08T13:56:06;16.90;60.60
14877;DHT22;69691;48.172;17.070;2023-10-08T13:58:32;16.90;60.70
14877;DHT22;69691;48.172;17.070;2023-10-08T14:01:06;16.90;60.50
14877;DHT22;69691;48.172;17.070;2023-10-08T14:03:48;16.90;60.60
14877;DHT22;69691;48.172;17.070;2023-10-08T14:06:17;16.90;60.70
14877;DHT22;69691;48.172;17.070;2023-10-08T14:08:43;16.90;60.50
14877;DHT22;69691;48.172;17.070;2023-10-08T14:11:20;16.90;60.90
14877;DHT22;69691;48.172;17.070;2023-10-08T14:13:51;17.00;61.00
14877;DHT22;69691;48.172;17.070;2023-10-08T14:16:21;16.90;61.00
14877;DHT22;69691;48.172;17.070;2023-10-08T14:18:55;16.90;61.40
14877;DHT22;69691;48.172;17.070;2023-10-08T14:21:24;16.90;61.50
14877;DHT22;69691;48.172;17.070;2023-10-08T14:23:53;17.00;61.30
14877;DHT22;69691;48.172;17.070;2023-10-08T14:26:19;17.00;60.90
14877;DHT22;69691;48.172;17.070;2023-10-08T14:28:49;17.00;60.20
14877;DHT22;69691;48.172;17.070;2023-10-08T14:31:24;17.10;59.00
14877;DHT22;69691;48.172;17.070;2023-10-08T14:33:52;17.10;58.40
14877;DHT22;69691;48.172;17.070;2023-10-08T14:36:23;17.00;57.90
14877;DHT22;69691;48.172;17.070;2023-10-08T14:39:07;17.00;57.50
14877;DHT22;69691;48.172;17.070;2023-10-08T14:41:52;17.00;57.00
14877;DHT22;69691;48.172;17.070;2023-10-08T14:44:36;17.00;57.00
14877;DHT22;69691;48.172;17.070;2023-10-08T14:47:06;17.10;57.50
14877;DHT22;69691;48.172;17.070;2023-10-08T14:49:32;17.10;56.70
14877;DHT22;69691;48.172;17.070;2023-10-08T14:51:59;17.00;56.50
14877;DHT22;69691;48.172;17.070;2023-10-08T14:54:25;17.00;56.40
14877;DHT22;69691;48.172;17.070;2023-10-08T14:56:52;17.00;56.40
14877;DHT22;69691;48.172;17.070;2023-10-08T14:59:18;17.00;56.30
14877;DHT22;69691;48.172;17.070;2023-10-08T15:01:46;16.90;56.30
14877;DHT22;69691;48.172;17.070;2023-10-08T15:04:13;16.90;56.40
14877;DHT22;69691;48.172;17.070;2023-10-08T15:06:39;16.90;56.40
14877;DHT22;69691;48.172;17.070;2023-10-08T15:09:05;16.90;56.50
14877;DHT22;69691;48.172;17.070;2023-10-08T15:11:33;16.80;56.50
14877;DHT22;69691;48.172;17.070;2023-10-08T15:14:04;16.80;56.50
14877;DHT22;69691;48.172;17.070;2023-10-08T15:16:38;16.80;56.70
14877;DHT22;69691;48.172;17.070;2023-10-08T15:19:05;16.80;56.70
14877;DHT22;69691;48.172;17.070;2023-10-08T15:21:31;16.70;56.80
14877;DHT22;69691;48.172;17.070;2023-10-08T15:24:00;16.70;56.90
14877;DHT22;69691;48.172;17.070;2023-10-08T15:26:34;16.70;57.10
14877;DHT22;69691;48.172;17.070;2023-10-08T15:29:00;16.70;57.20
14877;DHT22;69691;48.172;17.070;2023-10-08T15:31:28;16.70;57.10
14877;DHT22;69691;48.172;17.070;2023-10-08T15:33:54;16.70;57.10
14877;DHT22;69691;48.172;17.070;2023-10-08T15:36:20;16.70;57.20
14877;DHT22;69691;48.172;17.070;2023-10-08T15:38:46;16.70;57.40
14877;DHT22;69691;48.172;17.070;2023-10-08T15:41:12;16.60;57.50
14877;DHT22;69691;48.172;17.070;2023-10-08T15:43:39;16.70;57.30
14877;DHT22;69691;48.172;17.070;2023-10-08T15:46:07;16.70;57.40